TimeEDT,TemperatureF,Dew PointF,Humidity,Sea Level PressureIn,VisibilityMPH,Wind Direction,Wind SpeedMPH,Gust SpeedMPH,PrecipitationIn,Events,Conditions,WindDirDegrees,DateUTC
12:15 AM,67.1,65.5,95,30.25,10.0,Calm,Calm,-,N/A,,Clear,0,2013-06-23 04:15:00
12:35 AM,67.1,65.3,94,30.25,10.0,North,3.5,-,N/A,,Clear,360,2013-06-23 04:35:00
12:55 AM,67.1,65.1,93,30.25,10.0,North,3.5,-,N/A,,Clear,360,2013-06-23 04:55:00
1:15 AM,66.6,64.6,93,30.24,10.0,Calm,Calm,-,N/A,,Clear,0,2013-06-23 05:15:00
1:35 AM,64.9,63.7,96,30.24,10.0,NNW,3.5,-,N/A,,Clear,330,2013-06-23 05:35:00
1:55 AM,64.6,63.9,98,30.25,10.0,Calm,Calm,-,N/A,,Clear,0,2013-06-23 05:55:00
2:15 AM,63.5,62.8,97,30.24,7.0,Calm,Calm,-,N/A,,Clear,0,2013-06-23 06:15:00
2:35 AM,63.5,63.1,99,30.23,7.0,Calm,Calm,-,N/A,,Clear,0,2013-06-23 06:35:00
2:55 AM,63.0,62.8,99,30.23,5.0,Calm,Calm,-,N/A,,Clear,0,2013-06-23 06:55:00
3:15 AM,62.8,62.8,100,30.23,5.0,Calm,Calm,-,N/A,,Clear,0,2013-06-23 07:15:00
3:35 AM,62.4,62.2,99,30.22,5.0,Calm,Calm,-,N/A,,Clear,0,2013-06-23 07:35:00
3:55 AM,61.9,61.9,100,30.23,5.0,Calm,Calm,-,N/A,,Clear,0,2013-06-23 07:55:00
4:15 AM,62.1,62.1,100,30.22,7.0,Calm,Calm,-,N/A,,Clear,0,2013-06-23 08:15:00
4:35 AM,61.2,61.2,100,30.22,5.0,Calm,Calm,-,N/A,,Clear,0,2013-06-23 08:35:00
4:55 AM,60.8,60.8,100,30.22,5.0,Calm,Calm,-,N/A,,Clear,0,2013-06-23 08:55:00
5:15 AM,59.2,59.2,100,30.22,4.0,Calm,Calm,-,N/A,,Clear,0,2013-06-23 09:15:00
5:35 AM,59.9,59.9,100,30.23,5.0,Calm,Calm,-,N/A,,Clear,0,2013-06-23 09:35:00
5:55 AM,59.2,59.2,100,30.24,4.0,Calm,Calm,-,N/A,,Scattered Clouds,0,2013-06-23 09:55:00
6:15 AM,59.9,59.9,100,30.25,5.0,Calm,Calm,-,N/A,,Overcast,0,2013-06-23 10:15:00
6:35 AM,62.8,62.8,100,30.26,5.0,Calm,Calm,-,N/A,,Overcast,0,2013-06-23 10:35:00
6:55 AM,61.7,61.7,100,30.27,4.0,Calm,Calm,-,N/A,,Scattered Clouds,0,2013-06-23 10:55:00
7:15 AM,62.6,62.6,100,30.28,4.0,Calm,Calm,-,N/A,,Scattered Clouds,0,2013-06-23 11:15:00
7:35 AM,63.5,63.5,100,30.28,7.0,Calm,Calm,-,N/A,,Mostly Cloudy,0,2013-06-23 11:35:00
7:55 AM,64.0,63.9,99,30.29,7.0,Calm,Calm,-,N/A,,Overcast,0,2013-06-23 11:55:00
8:15 AM,65.7,64.4,96,30.29,10.0,Calm,Calm,-,N/A,,Scattered Clouds,0,2013-06-23 12:15:00
8:35 AM,67.8,64.4,89,30.29,10.0,NNW,3.5,-,N/A,,Clear,330,2013-06-23 12:35:00
8:55 AM,69.6,64.9,85,30.29,10.0,Calm,Calm,-,N/A,,Clear,0,2013-06-23 12:55:00
9:15 AM,71.4,64.8,79,30.29,10.0,Calm,Calm,-,N/A,,Clear,0,2013-06-23 13:15:00
9:35 AM,73.4,64.6,74,30.29,10.0,Calm,Calm,-,N/A,,Clear,0,2013-06-23 13:35:00
9:55 AM,75.2,64.4,69,30.29,10.0,Calm,Calm,-,N/A,,Clear,0,2013-06-23 13:55:00
10:15 AM,76.1,64.8,68,30.29,10.0,Calm,Calm,-,N/A,,Clear,0,2013-06-23 14:15:00
10:35 AM,77.4,65.1,66,30.29,10.0,West,3.5,-,N/A,,Clear,260,2013-06-23 14:35:00
10:55 AM,78.3,65.7,65,30.29,10.0,East,3.5,-,N/A,,Scattered Clouds,80,2013-06-23 14:55:00
11:15 AM,79.3,64.2,60,30.29,10.0,SW,5.8,-,N/A,,Scattered Clouds,230,2013-06-23 15:15:00
11:35 AM,80.4,64.4,58,30.29,10.0,South,3.5,-,N/A,,Scattered Clouds,180,2013-06-23 15:35:00
11:55 AM,80.4,63.3,56,30.29,10.0,Calm,Calm,-,N/A,,Scattered Clouds,0,2013-06-23 15:55:00
12:15 PM,80.4,61.9,53,30.28,10.0,SSW,3.5,-,N/A,,Scattered Clouds,200,2013-06-23 16:15:00
12:35 PM,82.2,63.1,52,30.27,10.0,Calm,Calm,-,N/A,,Scattered Clouds,0,2013-06-23 16:35:00
12:55 PM,83.5,63.7,51,30.27,10.0,South,3.5,-,N/A,,Scattered Clouds,170,2013-06-23 16:55:00
1:15 PM,83.8,63.0,49,30.26,10.0,West,3.5,-,N/A,,Clear,260,2013-06-23 17:15:00
1:35 PM,82.9,62.8,50,30.25,10.0,Calm,Calm,-,N/A,,Clear,0,2013-06-23 17:35:00
1:55 PM,84.4,60.6,45,30.24,10.0,Calm,Calm,-,N/A,,Clear,0,2013-06-23 17:55:00
2:15 PM,83.8,61.0,46,30.24,10.0,SW,3.5,-,N/A,,Clear,220,2013-06-23 18:15:00
2:35 PM,85.5,61.3,44,30.23,10.0,Calm,Calm,-,N/A,,Clear,0,2013-06-23 18:35:00
2:55 PM,85.8,61.0,43,30.22,10.0,SSW,4.6,-,N/A,,Clear,210,2013-06-23 18:55:00
3:15 PM,86.4,59.2,40,30.22,10.0,SSW,3.5,-,N/A,,Scattered Clouds,200,2013-06-23 19:15:00
3:35 PM,86.4,62.2,44,30.21,10.0,SSE,3.5,-,N/A,,Scattered Clouds,150,2013-06-23 19:35:00
3:55 PM,85.1,63.7,49,30.21,10.0,SE,4.6,-,N/A,,Scattered Clouds,140,2013-06-23 19:55:00
4:15 PM,85.6,62.1,45,30.20,10.0,ESE,3.5,-,N/A,,Clear,120,2013-06-23 20:15:00
4:35 PM,82.6,65.8,57,30.21,10.0,Calm,Calm,-,N/A,,Scattered Clouds,0,2013-06-23 20:35:00
4:55 PM,83.3,64.8,53,30.20,10.0,Calm,Calm,-,N/A,,Scattered Clouds,0,2013-06-23 20:55:00
5:15 PM,82.6,66.7,59,30.20,10.0,Calm,Calm,-,N/A,,Clear,0,2013-06-23 21:15:00
5:35 PM,82.9,68.2,61,30.20,10.0,Calm,Calm,-,N/A,,Clear,0,2013-06-23 21:35:00
5:55 PM,83.3,65.8,55,30.19,10.0,Calm,Calm,-,N/A,,Clear,0,2013-06-23 21:55:00
6:15 PM,83.5,66.6,57,30.19,10.0,WSW,4.6,-,N/A,,Clear,250,2013-06-23 22:15:00
6:35 PM,82.6,66.4,58,30.20,10.0,WSW,5.8,-,N/A,,Scattered Clouds,240,2013-06-23 22:35:00
6:55 PM,83.1,64.4,53,30.20,10.0,SW,4.6,-,N/A,,Scattered Clouds,220,2013-06-23 22:55:00
7:15 PM,80.4,67.1,64,30.21,10.0,South,4.6,-,N/A,,Mostly Cloudy,190,2013-06-23 23:15:00
7:35 PM,79.0,68.2,69,30.20,10.0,SSE,3.5,-,N/A,,Scattered Clouds,150,2013-06-23 23:35:00
7:55 PM,77.9,69.1,74,30.21,10.0,South,3.5,-,N/A,,Scattered Clouds,170,2013-06-23 23:55:00
8:15 PM,77.4,68.9,75,30.22,10.0,South,3.5,-,N/A,,Scattered Clouds,180,2013-06-24 00:15:00
8:35 PM,76.5,67.1,73,30.22,10.0,South,6.9,-,N/A,,Mostly Cloudy,190,2013-06-24 00:35:00
8:55 PM,75.6,65.8,72,30.22,10.0,South,3.5,-,N/A,,Scattered Clouds,180,2013-06-24 00:55:00
9:15 PM,73.9,66.7,78,30.23,10.0,West,4.6,-,N/A,Rain,Light Rain,260,2013-06-24 01:15:00
9:35 PM,72.0,67.5,86,30.23,10.0,Calm,Calm,-,N/A,Rain,Light Rain,0,2013-06-24 01:35:00
9:55 PM,72.7,66.6,81,30.24,10.0,Calm,Calm,-,N/A,,Mostly Cloudy,0,2013-06-24 01:55:00
10:15 PM,71.8,66.2,83,30.26,10.0,SW,3.5,-,N/A,,Scattered Clouds,230,2013-06-24 02:15:00
10:35 PM,72.5,66.2,81,30.27,10.0,SSW,3.5,-,N/A,,Scattered Clouds,200,2013-06-24 02:35:00
10:55 PM,72.0,67.3,85,30.27,10.0,Calm,Calm,-,N/A,,Scattered Clouds,0,2013-06-24 02:55:00
11:15 PM,69.4,66.7,91,30.27,10.0,Calm,Calm,-,N/A,,Clear,0,2013-06-24 03:15:00
11:35 PM,67.6,66.6,96,30.27,10.0,Calm,Calm,-,N/A,,Clear,0,2013-06-24 03:35:00
11:55 PM,67.1,66.4,98,30.27,10.0,Calm,Calm,-,N/A,,Clear,0,2013-06-24 03:55:00